sensor_id;sensor_type;location;lat;lon;timestamp;P1;durP1;ratioP1;P2;durP2;ratioP2
39242;SDS011;29823;47.404;8.566;2023-01-23T00:00:05;20.77;;;12.60;;
39242;SDS011;29823;47.404;8.566;2023-01-23T00:02:41;22.38;;;12.93;;
39242;SDS011;29823;47.404;8.566;2023-01-23T00:05:09;28.05;;;13.77;;
39242;SDS011;29823;47.404;8.566;2023-01-23T00:07:38;24.25;;;13.32;;
39242;SDS011;29823;47.404;8.566;2023-01-23T00:10:07;24.23;;;12.48;;
39242;SDS011;29823;47.404;8.566;2023-01-23T00:12:35;20.38;;;12.30;;
39242;SDS011;29823;47.404;8.566;2023-01-23T00:15:04;22.05;;;12.73;;
39242;SDS011;29823;47.404;8.566;2023-01-23T00:17:32;22.42;;;13.52;;
39242;SDS011;29823;47.404;8.566;2023-01-23T00:20:00;22.85;;;12.93;;
39242;SDS011;29823;47.404;8.566;2023-01-23T00:22:29;27.52;;;14.23;;
39242;SDS011;29823;47.404;8.566;2023-01-23T00:24:58;23.85;;;13.13;;
39242;SDS011;29823;47.404;8.566;2023-01-23T00:27:26;20.63;;;12.50;;
39242;SDS011;29823;47.404;8.566;2023-01-23T00:29:54;23.25;;;13.10;;
39242;SDS011;29823;47.404;8.566;2023-01-23T00:32:22;23.15;;;12.88;;
39242;SDS011;29823;47.404;8.566;2023-01-23T00:34:50;24.30;;;13.52;;
39242;SDS011;29823;47.404;8.566;2023-01-23T00:37:18;20.58;;;12.68;;
39242;SDS011;29823;47.404;8.566;2023-01-23T00:39:46;27.98;;;13.82;;
39242;SDS011;29823;47.404;8.566;2023-01-23T00:42:17;23.67;;;13.65;;
39242;SDS011;29823;47.404;8.566;2023-01-23T00:44:45;23.48;;;13.73;;
39242;SDS011;29823;47.404;8.566;2023-01-23T00:47:13;23.85;;;13.45;;
39242;SDS011;29823;47.404;8.566;2023-01-23T00:49:41;25.67;;;14.02;;
39242;SDS011;29823;47.404;8.566;2023-01-23T00:52:08;26.23;;;14.25;;
39242;SDS011;29823;47.404;8.566;2023-01-23T00:54:36;27.85;;;14.07;;
39242;SDS011;29823;47.404;8.566;2023-01-23T00:57:04;25.73;;;14.40;;
39242;SDS011;29823;47.404;8.566;2023-01-23T00:59:33;24.27;;;14.18;;
39242;SDS011;29823;47.404;8.566;2023-01-23T01:02:01;27.27;;;14.18;;
39242;SDS011;29823;47.404;8.566;2023-01-23T01:04:30;25.42;;;14.85;;
39242;SDS011;29823;47.404;8.566;2023-01-23T01:06:57;26.00;;;15.05;;
39242;SDS011;29823;47.404;8.566;2023-01-23T01:09:25;25.98;;;14.50;;
39242;SDS011;29823;47.404;8.566;2023-01-23T01:11:53;23.15;;;13.80;;
39242;SDS011;29823;47.404;8.566;2023-01-23T01:14:21;26.60;;;13.48;;
39242;SDS011;29823;47.404;8.566;2023-01-23T01:16:51;25.05;;;13.95;;
39242;SDS011;29823;47.404;8.566;2023-01-23T01:19:18;23.00;;;13.90;;
39242;SDS011;29823;47.404;8.566;2023-01-23T01:21:46;28.85;;;15.57;;
39242;SDS011;29823;47.404;8.566;2023-01-23T01:24:14;24.20;;;13.80;;
39242;SDS011;29823;47.404;8.566;2023-01-23T01:26:42;23.05;;;13.32;;
39242;SDS011;29823;47.404;8.566;2023-01-23T01:29:10;22.27;;;13.30;;
39242;SDS011;29823;47.404;8.566;2023-01-23T01:31:37;24.50;;;14.35;;
39242;SDS011;29823;47.404;8.566;2023-01-23T01:34:07;21.75;;;13.20;;
39242;SDS011;29823;47.404;8.566;2023-01-23T01:36:35;25.00;;;13.82;;
39242;SDS011;29823;47.404;8.566;2023-01-23T01:39:03;24.17;;;13.82;;
39242;SDS011;29823;47.404;8.566;2023-01-23T01:41:31;23.83;;;14.25;;
39242;SDS011;29823;47.404;8.566;2023-01-23T01:43:58;24.58;;;13.98;;
39242;SDS011;29823;47.404;8.566;2023-01-23T01:46:26;26.00;;;15.05;;
39242;SDS011;29823;47.404;8.566;2023-01-23T01:49:00;25.17;;;14.43;;
39242;SDS011;29823;47.404;8.566;2023-01-23T01:51:34;24.83;;;14.68;;
39242;SDS011;29823;47.404;8.566;2023-01-23T01:54:06;25.75;;;14.65;;
39242;SDS011;29823;47.404;8.566;2023-01-23T01:56:42;25.50;;;15.27;;
39242;SDS011;29823;47.404;8.566;2023-01-23T01:59:14;70.82;;;32.72;;
39242;SDS011;29823;47.404;8.566;2023-01-23T02:01:44;32.30;;;17.33;;
39242;SDS011;29823;47.404;8.566;2023-01-23T02:04:17;27.05;;;14.93;;
39242;SDS011;29823;47.404;8.566;2023-01-23T02:06:46;24.98;;;14.23;;
39242;SDS011;29823;47.404;8.566;2023-01-23T02:09:19;26.55;;;14.68;;
39242;SDS011;29823;47.404;8.566;2023-01-23T02:11:50;28.65;;;15.73;;
39242;SDS011;29823;47.404;8.566;2023-01-23T02:14:19;24.27;;;14.65;;
39242;SDS011;29823;47.404;8.566;2023-01-23T02:16:49;28.15;;;16.20;;
39242;SDS011;29823;47.404;8.566;2023-01-23T02:19:23;28.45;;;16.15;;
39242;SDS011;29823;47.404;8.566;2023-01-23T02:22:08;27.70;;;15.68;;
39242;SDS011;29823;47.404;8.566;2023-01-23T02:24:46;28.55;;;15.98;;
39242;SDS011;29823;47.404;8.566;2023-01-23T02:27:22;27.17;;;15.18;;
39242;SDS011;29823;47.404;8.566;2023-01-23T02:29:50;28.50;;;16.08;;
39242;SDS011;29823;47.404;8.566;2023-01-23T02:32:21;23.73;;;14.40;;
39242;SDS011;29823;47.404;8.566;2023-01-23T02:34:51;30.60;;;16.38;;
39242;SDS011;29823;47.404;8.566;2023-01-23T02:37:21;28.48;;;15.73;;
39242;SDS011;29823;47.404;8.566;2023-01-23T02:39:55;29.10;;;15.15;;
39242;SDS011;29823;47.404;8.566;2023-01-23T02:42:24;28.33;;;15.93;;
39242;SDS011;29823;47.404;8.566;2023-01-23T02:44:52;28.30;;;15.90;;
39242;SDS011;29823;47.404;8.566;2023-01-23T02:47:22;28.35;;;15.43;;
39242;SDS011;29823;47.404;8.566;2023-01-23T02:49:50;27.33;;;15.80;;
39242;SDS011;29823;47.404;8.566;2023-01-23T02:52:18;31.67;;;15.95;;
39242;SDS011;29823;47.404;8.566;2023-01-23T02:54:46;26.35;;;15.02;;
39242;SDS011;29823;47.404;8.566;2023-01-23T02:57:14;25.42;;;15.60;;
39242;SDS011;29823;47.404;8.566;2023-01-23T02:59:43;25.17;;;14.57;;
39242;SDS011;29823;47.404;8.566;2023-01-23T03:02:28;26.77;;;14.63;;
39242;SDS011;29823;47.404;8.566;2023-01-23T03:04:56;28.50;;;15.25;;
39242;SDS011;29823;47.404;8.566;2023-01-23T03:07:24;25.70;;;14.80;;
39242;SDS011;29823;47.404;8.566;2023-01-23T03:09:52;26.33;;;14.98;;
39242;SDS011;29823;47.404;8.566;2023-01-23T03:12:20;27.75;;;14.98;;
39242;SDS011;29823;47.404;8.566;2023-01-23T03:14:49;28.38;;;15.73;;
39242;SDS011;29823;47.404;8.566;2023-01-23T03:17:20;26.80;;;15.02;;
39242;SDS011;29823;47.404;8.566;2023-01-23T03:19:48;28.38;;;15.52;;
39242;SDS011;29823;47.404;8.566;2023-01-23T03:22:15;29.25;;;16.08;;
39242;SDS011;29823;47.404;8.566;2023-01-23T03:24:43;26.98;;;14.77;;
39242;SDS011;29823;47.404;8.566;2023-01-23T03:27:11;27.65;;;15.70;;
39242;SDS011;29823;47.404;8.566;2023-01-23T03:29:39;26.15;;;14.95;;
39242;SDS011;29823;47.404;8.566;2023-01-23T03:32:26;26.60;;;14.73;;
39242;SDS011;29823;47.404;8.566;2023-01-23T03:34:54;29.75;;;16.45;;
39242;SDS011;29823;47.404;8.566;2023-01-23T03:37:22;27.60;;;15.45;;
39242;SDS011;29823;47.404;8.566;2023-01-23T03:39:50;26.40;;;15.07;;
39242;SDS011;29823;47.404;8.566;2023-01-23T03:42:35;30.63;;;16.92;;
39242;SDS011;29823;47.404;8.566;2023-01-23T03:45:03;27.80;;;15.23;;
39242;SDS011;29823;47.404;8.566;2023-01-23T03:47:33;30.88;;;15.82;;
39242;SDS011;29823;47.404;8.566;2023-01-23T03:50:01;28.75;;;15.50;;
39242;SDS011;29823;47.404;8.566;2023-01-23T03:52:29;28.00;;;15.63;;
39242;SDS011;29823;47.404;8.566;2023-01-23T03:54:57;28.45;;;15.35;;
39242;SDS011;29823;47.404;8.566;2023-01-23T03:57:25;28.80;;;15.90;;
39242;SDS011;29823;47.404;8.566;2023-01-23T03:59:53;40.45;;;16.23;;
39242;SDS011;29823;47.404;8.566;2023-01-23T04:02:21;29.77;;;15.57;;
39242;SDS011;29823;47.404;8.566;2023-01-23T04:04:51;28.75;;;15.15;;
39242;SDS011;29823;47.404;8.566;2023-01-23T04:07:19;26.90;;;15.40;;
39242;SDS011;29823;47.404;8.566;2023-01-23T04:09:46;30.45;;;16.15;;
39242;SDS011;29823;47.404;8.566;2023-01-23T04:12:15;27.70;;;15.27;;
39242;SDS011;29823;47.404;8.566;2023-01-23T04:14:43;29.55;;;15.57;;
39242;SDS011;29823;47.404;8.566;2023-01-23T04:17:11;28.77;;;15.45;;
39242;SDS011;29823;47.404;8.566;2023-01-23T04:19:38;28.55;;;15.13;;
39242;SDS011;29823;47.404;8.566;2023-01-23T04:22:08;29.85;;;15.95;;
39242;SDS011;29823;47.404;8.566;2023-01-23T04:24:36;26.75;;;14.90;;
39242;SDS011;29823;47.404;8.566;2023-01-23T04:27:03;24.65;;;13.60;;
39242;SDS011;29823;47.404;8.566;2023-01-23T04:29:31;26.85;;;13.82;;
39242;SDS011;29823;47.404;8.566;2023-01-23T04:31:59;27.58;;;14.48;;
39242;SDS011;29823;47.404;8.566;2023-01-23T04:34:27;28.95;;;14.63;;
39242;SDS011;29823;47.404;8.566;2023-01-23T04:36:55;25.70;;;13.82;;
39242;SDS011;29823;47.404;8.566;2023-01-23T04:39:24;26.75;;;13.85;;
39242;SDS011;29823;47.404;8.566;2023-01-23T04:41:52;27.95;;;14.80;;
39242;SDS011;29823;47.404;8.566;2023-01-23T04:44:20;24.52;;;13.20;;
39242;SDS011;29823;47.404;8.566;2023-01-23T04:46:48;25.88;;;13.73;;
39242;SDS011;29823;47.404;8.566;2023-01-23T04:49:18;24.15;;;13.13;;
39242;SDS011;29823;47.404;8.566;2023-01-23T04:51:47;24.52;;;12.77;;
39242;SDS011;29823;47.404;8.566;2023-01-23T04:54:15;28.23;;;14.35;;
39242;SDS011;29823;47.404;8.566;2023-01-23T04:56:46;26.55;;;14.10;;
39242;SDS011;29823;47.404;8.566;2023-01-23T04:59:14;25.83;;;14.00;;
39242;SDS011;29823;47.404;8.566;2023-01-23T05:01:43;29.38;;;14.02;;
39242;SDS011;29823;47.404;8.566;2023-01-23T05:04:11;27.52;;;13.68;;
39242;SDS011;29823;47.404;8.566;2023-01-23T05:06:39;28.23;;;14.30;;
39242;SDS011;29823;47.404;8.566;2023-01-23T05:09:07;28.58;;;14.75;;
39242;SDS011;29823;47.404;8.566;2023-01-23T05:11:35;25.83;;;14.35;;
39242;SDS011;29823;47.404;8.566;2023-01-23T05:14:04;27.60;;;15.45;;
39242;SDS011;29823;47.404;8.566;2023-01-23T05:16:32;26.42;;;14.27;;
39242;SDS011;29823;47.404;8.566;2023-01-23T05:19:00;27.83;;;15.02;;
39242;SDS011;29823;47.404;8.566;2023-01-23T05:21:27;27.20;;;15.07;;
39242;SDS011;29823;47.404;8.566;2023-01-23T05:23:55;27.80;;;14.20;;
39242;SDS011;29823;47.404;8.566;2023-01-23T05:26:23;27.58;;;14.15;;
39242;SDS011;29823;47.404;8.566;2023-01-23T05:28:51;28.35;;;14.57;;
39242;SDS011;29823;47.404;8.566;2023-01-23T05:31:20;29.33;;;15.25;;
39242;SDS011;29823;47.404;8.566;2023-01-23T05:33:48;28.88;;;15.57;;
39242;SDS011;29823;47.404;8.566;2023-01-23T05:36:16;28.35;;;15.77;;
39242;SDS011;29823;47.404;8.566;2023-01-23T05:38:44;30.92;;;15.90;;
39242;SDS011;29823;47.404;8.566;2023-01-23T05:41:12;29.00;;;14.18;;
39242;SDS011;29823;47.404;8.566;2023-01-23T05:43:39;26.92;;;14.15;;
39242;SDS011;29823;47.404;8.566;2023-01-23T05:46:07;31.40;;;16.33;;
39242;SDS011;29823;47.404;8.566;2023-01-23T05:48:36;27.00;;;14.48;;
39242;SDS011;29823;47.404;8.566;2023-01-23T05:51:04;29.30;;;14.75;;
39242;SDS011;29823;47.404;8.566;2023-01-23T05:53:32;26.92;;;13.95;;
39242;SDS011;29823;47.404;8.566;2023-01-23T05:56:03;25.92;;;14.55;;
39242;SDS011;29823;47.404;8.566;2023-01-23T05:58:32;26.13;;;12.82;;
39242;SDS011;29823;47.404;8.566;2023-01-23T06:01:00;26.70;;;13.85;;
39242;SDS011;29823;47.404;8.566;2023-01-23T06:03:28;26.13;;;14.00;;
39242;SDS011;29823;47.404;8.566;2023-01-23T06:05:58;26.13;;;13.45;;
39242;SDS011;29823;47.404;8.566;2023-01-23T06:08:27;23.88;;;13.05;;
39242;SDS011;29823;47.404;8.566;2023-01-23T06:10:56;25.23;;;13.45;;
39242;SDS011;29823;47.404;8.566;2023-01-23T06:13:24;24.25;;;13.45;;
39242;SDS011;29823;47.404;8.566;2023-01-23T06:15:53;27.63;;;14.20;;
39242;SDS011;29823;47.404;8.566;2023-01-23T06:18:21;25.75;;;14.07;;
39242;SDS011;29823;47.404;8.566;2023-01-23T06:20:55;25.20;;;13.75;;
39242;SDS011;29823;47.404;8.566;2023-01-23T06:23:26;25.25;;;13.13;;
39242;SDS011;29823;47.404;8.566;2023-01-23T06:25:57;21.73;;;12.65;;
39242;SDS011;29823;47.404;8.566;2023-01-23T06:28:25;26.52;;;12.88;;
39242;SDS011;29823;47.404;8.566;2023-01-23T06:30:53;25.40;;;13.93;;
39242;SDS011;29823;47.404;8.566;2023-01-23T06:33:21;29.75;;;14.60;;
39242;SDS011;29823;47.404;8.566;2023-01-23T06:35:55;28.40;;;13.15;;
39242;SDS011;29823;47.404;8.566;2023-01-23T06:38:25;29.00;;;13.95;;
39242;SDS011;29823;47.404;8.566;2023-01-23T06:40:53;24.40;;;13.00;;
39242;SDS011;29823;47.404;8.566;2023-01-23T06:43:21;25.92;;;14.25;;
39242;SDS011;29823;47.404;8.566;2023-01-23T06:45:50;24.45;;;13.68;;
39242;SDS011;29823;47.404;8.566;2023-01-23T06:48:18;25.00;;;12.80;;
39242;SDS011;29823;47.404;8.566;2023-01-23T06:50:46;31.40;;;13.75;;
39242;SDS011;29823;47.404;8.566;2023-01-23T06:53:15;22.92;;;12.27;;
39242;SDS011;29823;47.404;8.566;2023-01-23T06:55:44;25.55;;;12.63;;
39242;SDS011;29823;47.404;8.566;2023-01-23T06:58:12;25.40;;;13.30;;
39242;SDS011;29823;47.404;8.566;2023-01-23T07:00:40;27.13;;;13.13;;
39242;SDS011;29823;47.404;8.566;2023-01-23T07:03:10;25.17;;;12.57;;
39242;SDS011;29823;47.404;8.566;2023-01-23T07:05:38;24.33;;;13.45;;
39242;SDS011;29823;47.404;8.566;2023-01-23T07:08:08;22.33;;;11.75;;
39242;SDS011;29823;47.404;8.566;2023-01-23T07:10:38;24.70;;;12.35;;
39242;SDS011;29823;47.404;8.566;2023-01-23T07:13:06;23.33;;;12.45;;
39242;SDS011;29823;47.404;8.566;2023-01-23T07:15:36;22.27;;;11.73;;
39242;SDS011;29823;47.404;8.566;2023-01-23T07:18:06;20.67;;;10.90;;
39242;SDS011;29823;47.404;8.566;2023-01-23T07:20:35;20.30;;;11.90;;
39242;SDS011;29823;47.404;8.566;2023-01-23T07:23:03;24.90;;;11.15;;
39242;SDS011;29823;47.404;8.566;2023-01-23T07:25:31;20.65;;;11.48;;
39242;SDS011;29823;47.404;8.566;2023-01-23T07:28:00;22.67;;;12.23;;
39242;SDS011;29823;47.404;8.566;2023-01-23T07:30:28;23.85;;;13.02;;
39242;SDS011;29823;47.404;8.566;2023-01-23T07:32:56;24.50;;;12.55;;
39242;SDS011;29823;47.404;8.566;2023-01-23T07:35:24;24.05;;;13.20;;
39242;SDS011;29823;47.404;8.566;2023-01-23T07:37:52;23.73;;;13.18;;
39242;SDS011;29823;47.404;8.566;2023-01-23T07:40:21;25.45;;;13.40;;
39242;SDS011;29823;47.404;8.566;2023-01-23T07:42:49;21.65;;;12.68;;
39242;SDS011;29823;47.404;8.566;2023-01-23T07:45:18;24.42;;;12.70;;
39242;SDS011;29823;47.404;8.566;2023-01-23T07:47:46;26.85;;;12.52;;
39242;SDS011;29823;47.404;8.566;2023-01-23T07:50:14;28.73;;;12.90;;
39242;SDS011;29823;47.404;8.566;2023-01-23T07:52:42;24.27;;;13.57;;
39242;SDS011;29823;47.404;8.566;2023-01-23T07:55:10;26.50;;;13.20;;
39242;SDS011;29823;47.404;8.566;2023-01-23T07:57:38;30.15;;;14.82;;
39242;SDS011;29823;47.404;8.566;2023-01-23T08:00:06;26.27;;;13.13;;
39242;SDS011;29823;47.404;8.566;2023-01-23T08:02:37;27.13;;;13.02;;
39242;SDS011;29823;47.404;8.566;2023-01-23T08:05:05;25.98;;;13.73;;
39242;SDS011;29823;47.404;8.566;2023-01-23T08:07:34;26.27;;;14.15;;
39242;SDS011;29823;47.404;8.566;2023-01-23T08:10:01;22.77;;;12.77;;
39242;SDS011;29823;47.404;8.566;2023-01-23T08:12:30;23.60;;;12.75;;
39242;SDS011;29823;47.404;8.566;2023-01-23T08:14:57;27.73;;;12.93;;
39242;SDS011;29823;47.404;8.566;2023-01-23T08:17:25;22.13;;;11.93;;
39242;SDS011;29823;47.404;8.566;2023-01-23T08:19:54;20.35;;;11.10;;
39242;SDS011;29823;47.404;8.566;2023-01-23T08:22:22;21.30;;;12.07;;
39242;SDS011;29823;47.404;8.566;2023-01-23T08:24:50;22.20;;;12.20;;
39242;SDS011;29823;47.404;8.566;2023-01-23T08:27:18;19.02;;;11.30;;
39242;SDS011;29823;47.404;8.566;2023-01-23T08:29:46;23.52;;;12.13;;
39242;SDS011;29823;47.404;8.566;2023-01-23T08:32:14;20.13;;;11.60;;
39242;SDS011;29823;47.404;8.566;2023-01-23T08:34:42;23.10;;;11.90;;
39242;SDS011;29823;47.404;8.566;2023-01-23T08:37:11;21.92;;;11.73;;
39242;SDS011;29823;47.404;8.566;2023-01-23T08:39:38;22.15;;;12.27;;
39242;SDS011;29823;47.404;8.566;2023-01-23T08:42:07;23.75;;;11.95;;
39242;SDS011;29823;47.404;8.566;2023-01-23T08:44:35;23.75;;;11.13;;
39242;SDS011;29823;47.404;8.566;2023-01-23T08:47:03;21.75;;;10.57;;
39242;SDS011;29823;47.404;8.566;2023-01-23T08:49:30;18.58;;;10.70;;
39242;SDS011;29823;47.404;8.566;2023-01-23T08:51:58;17.23;;;9.48;;
39242;SDS011;29823;47.404;8.566;2023-01-23T08:54:28;19.30;;;10.70;;
39242;SDS011;29823;47.404;8.566;2023-01-23T08:56:55;17.40;;;9.48;;
39242;SDS011;29823;47.404;8.566;2023-01-23T08:59:24;26.52;;;10.80;;
39242;SDS011;29823;47.404;8.566;2023-01-23T09:01:51;16.70;;;9.90;;
39242;SDS011;29823;47.404;8.566;2023-01-23T09:04:19;18.77;;;10.20;;
39242;SDS011;29823;47.404;8.566;2023-01-23T09:06:47;19.05;;;10.20;;
39242;SDS011;29823;47.404;8.566;2023-01-23T09:09:15;17.95;;;10.00;;
39242;SDS011;29823;47.404;8.566;2023-01-23T09:11:44;19.17;;;9.88;;
39242;SDS011;29823;47.404;8.566;2023-01-23T09:14:12;20.55;;;10.80;;
39242;SDS011;29823;47.404;8.566;2023-01-23T09:16:40;19.52;;;10.52;;
39242;SDS011;29823;47.404;8.566;2023-01-23T09:19:08;21.08;;;10.45;;
39242;SDS011;29823;47.404;8.566;2023-01-23T09:21:37;18.38;;;10.38;;
39242;SDS011;29823;47.404;8.566;2023-01-23T09:24:06;19.05;;;10.30;;
39242;SDS011;29823;47.404;8.566;2023-01-23T09:26:34;16.48;;;9.85;;
39242;SDS011;29823;47.404;8.566;2023-01-23T09:29:04;21.60;;;10.10;;
39242;SDS011;29823;47.404;8.566;2023-01-23T09:31:32;20.85;;;12.02;;
39242;SDS011;29823;47.404;8.566;2023-01-23T09:34:00;21.92;;;11.80;;
39242;SDS011;29823;47.404;8.566;2023-01-23T09:36:29;19.85;;;11.13;;
39242;SDS011;29823;47.404;8.566;2023-01-23T09:39:08;23.65;;;11.68;;
39242;SDS011;29823;47.404;8.566;2023-01-23T09:41:36;24.63;;;11.45;;
39242;SDS011;29823;47.404;8.566;2023-01-23T09:44:09;22.52;;;12.20;;
39242;SDS011;29823;47.404;8.566;2023-01-23T09:46:42;22.08;;;12.32;;
39242;SDS011;29823;47.404;8.566;2023-01-23T09:49:16;20.83;;;12.30;;
39242;SDS011;29823;47.404;8.566;2023-01-23T09:51:52;24.42;;;13.23;;
39242;SDS011;29823;47.404;8.566;2023-01-23T09:54:28;24.42;;;13.20;;
39242;SDS011;29823;47.404;8.566;2023-01-23T09:57:02;26.52;;;13.10;;
39242;SDS011;29823;47.404;8.566;2023-01-23T09:59:40;25.15;;;13.40;;
39242;SDS011;29823;47.404;8.566;2023-01-23T10:02:25;22.63;;;12.10;;
39242;SDS011;29823;47.404;8.566;2023-01-23T10:04:53;25.30;;;13.27;;
39242;SDS011;29823;47.404;8.566;2023-01-23T10:07:29;25.52;;;13.07;;
39242;SDS011;29823;47.404;8.566;2023-01-23T10:10:20;22.57;;;12.83;;
39242;SDS011;29823;47.404;8.566;2023-01-23T10:15:49;22.98;;;11.95;;
39242;SDS011;29823;47.404;8.566;2023-01-23T10:18:32;24.63;;;13.18;;
39242;SDS011;29823;47.404;8.566;2023-01-23T10:21:06;26.85;;;13.98;;
39242;SDS011;29823;47.404;8.566;2023-01-23T10:23:45;28.13;;;14.63;;
39242;SDS011;29823;47.404;8.566;2023-01-23T10:26:18;26.92;;;14.32;;
39242;SDS011;29823;47.404;8.566;2023-01-23T10:28:50;28.50;;;13.87;;
39242;SDS011;29823;47.404;8.566;2023-01-23T10:31:26;27.55;;;14.25;;
39242;SDS011;29823;47.404;8.566;2023-01-23T10:34:01;27.45;;;14.38;;
39242;SDS011;29823;47.404;8.566;2023-01-23T10:36:41;28.55;;;14.98;;
39242;SDS011;29823;47.404;8.566;2023-01-23T10:39:21;28.50;;;14.75;;
39242;SDS011;29823;47.404;8.566;2023-01-23T10:41:54;37.35;;;17.67;;
39242;SDS011;29823;47.404;8.566;2023-01-23T10:44:28;33.40;;;15.60;;
39242;SDS011;29823;47.404;8.566;2023-01-23T10:46:58;27.67;;;14.43;;
39242;SDS011;29823;47.404;8.566;2023-01-23T10:49:30;29.77;;;15.07;;
39242;SDS011;29823;47.404;8.566;2023-01-23T10:52:00;31.92;;;15.00;;
39242;SDS011;29823;47.404;8.566;2023-01-23T10:54:28;30.05;;;14.35;;
39242;SDS011;29823;47.404;8.566;2023-01-23T10:56:59;29.40;;;14.82;;
39242;SDS011;29823;47.404;8.566;2023-01-23T10:59:29;32.60;;;15.10;;
39242;SDS011;29823;47.404;8.566;2023-01-23T11:02:18;30.95;;;15.07;;
39242;SDS011;29823;47.404;8.566;2023-01-23T11:04:48;29.63;;;15.05;;
39242;SDS011;29823;47.404;8.566;2023-01-23T11:07:19;28.50;;;14.48;;
39242;SDS011;29823;47.404;8.566;2023-01-23T11:09:52;32.72;;;13.82;;
39242;SDS011;29823;47.404;8.566;2023-01-23T11:12:23;30.02;;;14.93;;
39242;SDS011;29823;47.404;8.566;2023-01-23T11:17:41;29.52;;;14.57;;
39242;SDS011;29823;47.404;8.566;2023-01-23T11:20:10;30.73;;;14.90;;
39242;SDS011;29823;47.404;8.566;2023-01-23T11:22:57;30.38;;;14.93;;
39242;SDS011;29823;47.404;8.566;2023-01-23T11:25:28;28.75;;;15.20;;
39242;SDS011;29823;47.404;8.566;2023-01-23T11:27:58;33.13;;;14.40;;
39242;SDS011;29823;47.404;8.566;2023-01-23T11:30:34;28.92;;;14.50;;
39242;SDS011;29823;47.404;8.566;2023-01-23T11:33:13;28.58;;;13.65;;
39242;SDS011;29823;47.404;8.566;2023-01-23T11:35:56;32.80;;;15.30;;
39242;SDS011;29823;47.404;8.566;2023-01-23T11:38:30;32.00;;;14.63;;
39242;SDS011;29823;47.404;8.566;2023-01-23T11:41:08;35.55;;;15.90;;
39242;SDS011;29823;47.404;8.566;2023-01-23T11:43:38;34.97;;;15.80;;
39242;SDS011;29823;47.404;8.566;2023-01-23T11:46:18;35.42;;;15.25;;
39242;SDS011;29823;47.404;8.566;2023-01-23T11:49:04;35.40;;;14.50;;
39242;SDS011;29823;47.404;8.566;2023-01-23T11:51:46;36.72;;;15.70;;
39242;SDS011;29823;47.404;8.566;2023-01-23T11:54:29;33.83;;;14.70;;
39242;SDS011;29823;47.404;8.566;2023-01-23T11:57:10;32.28;;;15.00;;
39242;SDS011;29823;47.404;8.566;2023-01-23T11:59:46;35.35;;;15.27;;
39242;SDS011;29823;47.404;8.566;2023-01-23T12:02:38;31.52;;;14.18;;
39242;SDS011;29823;47.404;8.566;2023-01-23T12:05:33;32.90;;;15.43;;
39242;SDS011;29823;47.404;8.566;2023-01-23T12:08:16;32.22;;;14.18;;
39242;SDS011;29823;47.404;8.566;2023-01-23T12:10:54;38.03;;;15.20;;
39242;SDS011;29823;47.404;8.566;2023-01-23T12:13:41;30.73;;;14.68;;
39242;SDS011;29823;47.404;8.566;2023-01-23T12:16:23;35.72;;;16.13;;
39242;SDS011;29823;47.404;8.566;2023-01-23T12:19:04;26.13;;;13.43;;
39242;SDS011;29823;47.404;8.566;2023-01-23T12:21:46;29.23;;;14.35;;
39242;SDS011;29823;47.404;8.566;2023-01-23T12:24:26;32.65;;;14.80;;
39242;SDS011;29823;47.404;8.566;2023-01-23T12:27:04;31.58;;;15.57;;
39242;SDS011;29823;47.404;8.566;2023-01-23T12:29:57;34.15;;;15.20;;
39242;SDS011;29823;47.404;8.566;2023-01-23T12:32:44;35.53;;;16.17;;
39242;SDS011;29823;47.404;8.566;2023-01-23T12:35:28;31.20;;;15.15;;
39242;SDS011;29823;47.404;8.566;2023-01-23T12:38:08;29.95;;;15.63;;
39242;SDS011;29823;47.404;8.566;2023-01-23T12:40:42;32.25;;;14.95;;
39242;SDS011;29823;47.404;8.566;2023-01-23T12:43:15;31.08;;;14.07;;
39242;SDS011;29823;47.404;8.566;2023-01-23T12:45:49;32.10;;;14.75;;
39242;SDS011;29823;47.404;8.566;2023-01-23T12:48:26;32.90;;;14.90;;
39242;SDS011;29823;47.404;8.566;2023-01-23T12:50:59;29.13;;;14.20;;
39242;SDS011;29823;47.404;8.566;2023-01-23T12:53:35;31.08;;;15.55;;
39242;SDS011;29823;47.404;8.566;2023-01-23T12:56:08;30.23;;;14.63;;
39242;SDS011;29823;47.404;8.566;2023-01-23T12:58:41;32.83;;;15.05;;
39242;SDS011;29823;47.404;8.566;2023-01-23T13:01:19;33.13;;;14.52;;
39242;SDS011;29823;47.404;8.566;2023-01-23T13:04:13;31.23;;;15.25;;
39242;SDS011;29823;47.404;8.566;2023-01-23T13:06:55;32.78;;;14.35;;
39242;SDS011;29823;47.404;8.566;2023-01-23T13:09:36;30.83;;;15.02;;
39242;SDS011;29823;47.404;8.566;2023-01-23T13:12:17;29.02;;;14.57;;
39242;SDS011;29823;47.404;8.566;2023-01-23T13:17:38;34.13;;;13.73;;
39242;SDS011;29823;47.404;8.566;2023-01-23T13:20:20;27.35;;;13.35;;
39242;SDS011;29823;47.404;8.566;2023-01-23T13:23:20;28.13;;;13.70;;
39242;SDS011;29823;47.404;8.566;2023-01-23T13:26:09;28.95;;;13.52;;
39242;SDS011;29823;47.404;8.566;2023-01-23T13:29:03;24.15;;;12.00;;
39242;SDS011;29823;47.404;8.566;2023-01-23T13:31:34;30.05;;;13.93;;
39242;SDS011;29823;47.404;8.566;2023-01-23T13:40:18;28.17;;;13.10;;
39242;SDS011;29823;47.404;8.566;2023-01-23T13:42:49;41.72;;;20.25;;
39242;SDS011;29823;47.404;8.566;2023-01-23T13:45:21;23.75;;;13.23;;
39242;SDS011;29823;47.404;8.566;2023-01-23T13:47:57;24.85;;;12.98;;
39242;SDS011;29823;47.404;8.566;2023-01-23T13:51:12;29.58;;;14.13;;
39242;SDS011;29823;47.404;8.566;2023-01-23T13:53:57;26.92;;;13.20;;
39242;SDS011;29823;47.404;8.566;2023-01-23T13:56:57;28.70;;;14.18;;
39242;SDS011;29823;47.404;8.566;2023-01-23T13:59:40;28.80;;;13.80;;
39242;SDS011;29823;47.404;8.566;2023-01-23T14:02:27;26.42;;;13.55;;
39242;SDS011;29823;47.404;8.566;2023-01-23T14:05:29;35.03;;;15.85;;
39242;SDS011;29823;47.404;8.566;2023-01-23T14:08:16;32.35;;;15.52;;
39242;SDS011;29823;47.404;8.566;2023-01-23T14:10:59;30.63;;;15.35;;
39242;SDS011;29823;47.404;8.566;2023-01-23T14:13:59;28.80;;;14.82;;
39242;SDS011;29823;47.404;8.566;2023-01-23T14:17:16;26.25;;;13.98;;
39242;SDS011;29823;47.404;8.566;2023-01-23T14:19:59;35.67;;;15.80;;
39242;SDS011;29823;47.404;8.566;2023-01-23T14:22:42;35.45;;;16.98;;
39242;SDS011;29823;47.404;8.566;2023-01-23T14:25:12;32.42;;;15.65;;
39242;SDS011;29823;47.404;8.566;2023-01-23T14:27:43;32.28;;;16.23;;
39242;SDS011;29823;47.404;8.566;2023-01-23T14:30:20;40.25;;;19.85;;
39242;SDS011;29823;47.404;8.566;2023-01-23T14:32:53;33.60;;;16.55;;
39242;SDS011;29823;47.404;8.566;2023-01-23T14:35:23;35.33;;;16.17;;
39242;SDS011;29823;47.404;8.566;2023-01-23T14:37:54;36.28;;;17.30;;
39242;SDS011;29823;47.404;8.566;2023-01-23T14:40:24;34.67;;;16.98;;
39242;SDS011;29823;47.404;8.566;2023-01-23T14:43:01;33.45;;;16.27;;
39242;SDS011;29823;47.404;8.566;2023-01-23T14:45:33;33.13;;;16.73;;
39242;SDS011;29823;47.404;8.566;2023-01-23T14:48:04;45.38;;;22.23;;
39242;SDS011;29823;47.404;8.566;2023-01-23T14:53:02;38.15;;;17.90;;
39242;SDS011;29823;47.404;8.566;2023-01-23T14:55:33;37.60;;;17.40;;
39242;SDS011;29823;47.404;8.566;2023-01-23T14:58:06;37.20;;;18.23;;
39242;SDS011;29823;47.404;8.566;2023-01-23T15:00:40;39.13;;;18.02;;
39242;SDS011;29823;47.404;8.566;2023-01-23T15:03:11;36.83;;;18.92;;
39242;SDS011;29823;47.404;8.566;2023-01-23T15:05:59;39.92;;;19.45;;